Terminal Aerodrome Forecast
Issued by NWS

Home | Current Version | Previous Version | Text Only | Print | Product List | Glossary On
Versions: 1 2 3 4 5 6 7 8 9 10 11 12
000
FTUS42 KTBW 302330
TAFPGD
TAF
KPGD 302330Z 0100/0124 30011KT P6SM FEW040 SCT250
     FM010300 VRB03KT P6SM FEW030 SCT250
     FM011800 26008KT P6SM VCTS SCT030CB SCT250=

USA.gov is the U.S. government's official web portal to all federal, state and local government web resources and services.